createdAt,value
2023-06-07T00:00:13.004Z,2.85
2023-06-07T00:05:25.644Z,3.10
2023-06-07T00:10:36.791Z,3.05
2023-06-07T00:15:47.819Z,3.17
2023-06-07T00:21:00.339Z,3.13
2023-06-07T00:26:11.904Z,3.10
2023-06-07T00:31:23.739Z,2.70
2023-06-07T00:36:35.445Z,2.88
2023-06-07T00:41:46.503Z,3.15
2023-06-07T00:47:05.951Z,3.25
2023-06-07T00:52:17.358Z,2.85
2023-06-07T00:57:34.918Z,3.20
2023-06-07T01:02:48.958Z,2.83
2023-06-07T01:08:04.983Z,2.85
2023-06-07T01:13:18.431Z,3.30
2023-06-07T01:18:29.337Z,3.17
2023-06-07T01:23:43.579Z,3.58
2023-06-07T01:28:55.993Z,2.80
2023-06-07T01:33:48.073Z,3.38
2023-06-07T01:38:23.812Z,2.83
2023-06-07T01:43:06.729Z,3.35
2023-06-07T01:47:43.283Z,3.58
2023-06-07T01:52:23.041Z,3.50
2023-06-07T01:57:05.391Z,3.67
2023-06-07T02:01:57.806Z,3.08
2023-06-07T02:06:35.018Z,3.30
2023-06-07T02:11:12.642Z,3.28
2023-06-07T02:15:48.018Z,2.97
2023-06-07T02:20:35.532Z,3.47
2023-06-07T02:25:08.423Z,3.60
2023-06-07T02:29:39.876Z,3.90
2023-06-07T02:34:13.602Z,3.55
2023-06-07T02:38:50.033Z,3.78
2023-06-07T02:43:19.880Z,3.95
2023-06-07T02:47:52.855Z,4.03
2023-06-07T02:52:38.730Z,4.10
2023-06-07T02:57:11.887Z,4.55
2023-06-07T03:01:48.231Z,4.28
2023-06-07T03:06:24.603Z,4.15
2023-06-07T03:10:59.876Z,4.53
2023-06-07T03:15:47.194Z,3.92
2023-06-07T03:20:25.222Z,3.83
2023-06-07T03:25:02.870Z,3.80
2023-06-07T03:29:42.318Z,3.63
2023-06-07T03:34:31.689Z,3.92
2023-06-07T03:39:25.094Z,3.63
2023-06-07T03:44:34.093Z,4.07
2023-06-07T03:54:56.635Z,3.85
2023-06-07T04:00:08.479Z,3.50
2023-06-07T04:05:19.838Z,4.18
2023-06-07T04:10:30.796Z,4.47
2023-06-07T04:15:51.857Z,3.90
2023-06-07T04:21:02.918Z,4.05
2023-06-07T04:26:14.046Z,4.00
2023-06-07T04:31:36.087Z,4.60
2023-06-07T04:36:52.768Z,4.00
2023-06-07T04:42:07.433Z,4.50
2023-06-07T04:47:19.649Z,4.72
2023-06-07T04:52:30.986Z,4.90
2023-06-07T04:57:42.422Z,5.82
2023-06-07T05:02:56.303Z,5.55
2023-06-07T05:08:08.001Z,4.70
2023-06-07T05:13:19.043Z,5.55
2023-06-07T05:18:30.206Z,5.13
2023-06-07T05:23:48.052Z,5.13
2023-06-07T05:28:59.206Z,5.45
2023-06-07T05:34:10.523Z,5.22
2023-06-07T05:39:21.960Z,4.65
2023-06-07T05:44:32.996Z,5.28
2023-06-07T05:49:46.912Z,4.93
2023-06-07T05:54:59.522Z,4.88
2023-06-07T06:03:21.835Z,4.90
2023-06-07T06:07:34.652Z,4.68
2023-06-07T06:11:47.049Z,4.35
2023-06-07T06:16:00.063Z,4.82
2023-06-07T06:20:14.120Z,4.05
2023-06-07T06:24:26.558Z,4.60
2023-06-07T06:28:48.938Z,3.97
2023-06-07T06:33:01.815Z,4.22
2023-06-07T06:37:14.186Z,4.57
2023-06-07T06:41:26.597Z,4.07
2023-06-07T06:45:38.933Z,4.22
2023-06-07T06:49:51.579Z,3.72
2023-06-07T06:54:04.009Z,4.68
2023-06-07T06:58:26.379Z,4.00
2023-06-07T07:02:39.259Z,3.40
2023-06-07T07:06:51.921Z,4.10
2023-06-07T07:11:05.141Z,3.88
2023-06-07T07:15:17.576Z,4.32
2023-06-07T07:19:39.934Z,4.50
2023-06-07T07:24:02.592Z,4.18
2023-06-07T07:28:15.031Z,4.63
2023-06-07T07:32:27.423Z,4.50
2023-06-07T07:36:43.257Z,3.78
2023-06-07T07:41:07.534Z,4.30
2023-06-07T07:45:20.015Z,3.53
2023-06-07T07:49:34.365Z,4.30
2023-06-07T07:53:49.184Z,3.05
2023-06-07T07:58:02.110Z,3.65
2023-06-07T08:02:14.549Z,3.85
2023-06-07T08:06:27.800Z,3.22
2023-06-07T08:10:40.152Z,3.88
2023-06-07T08:14:52.481Z,3.00
2023-06-07T08:19:08.799Z,3.35
2023-06-07T08:23:21.157Z,3.40
2023-06-07T08:27:34.800Z,3.15
2023-06-07T08:31:47.511Z,3.78
2023-06-07T08:35:59.845Z,3.47
2023-06-07T08:44:14.920Z,2.80
2023-06-07T08:48:27.697Z,2.50
2023-06-07T08:52:42.218Z,2.63
2023-06-07T08:56:58.061Z,2.70
2023-06-07T09:01:10.527Z,2.50
2023-06-07T09:05:23.993Z,2.42
2023-06-07T09:09:43.755Z,2.30
2023-06-07T09:13:57.994Z,2.55
2023-06-07T09:18:20.543Z,2.50
2023-06-07T09:22:34.614Z,2.92
2023-06-07T09:26:47.015Z,2.80
2023-06-07T09:31:01.935Z,2.70
2023-06-07T09:35:16.073Z,2.22
2023-06-07T09:39:31.296Z,2.55
2023-06-07T09:43:49.062Z,2.10
2023-06-07T09:48:11.023Z,2.40
2023-06-07T09:52:23.603Z,2.30
2023-06-07T09:56:40.663Z,2.28
2023-06-07T10:00:54.398Z,2.37
2023-06-07T10:05:18.034Z,2.30
2023-06-07T10:09:31.855Z,2.20
2023-06-07T10:13:44.795Z,2.22
2023-06-07T10:18:01.978Z,2.00
2023-06-07T10:22:17.329Z,2.63
2023-06-07T10:26:38.723Z,2.33
2023-06-07T10:30:55.710Z,2.10
2023-06-07T10:35:15.758Z,2.00
2023-06-07T10:39:28.493Z,1.90
2023-06-07T10:43:40.909Z,2.10
2023-06-07T10:47:53.718Z,2.63
2023-06-07T10:52:07.553Z,2.22
2023-06-07T10:56:31.223Z,2.03
2023-06-07T11:00:44.650Z,2.05
2023-06-07T11:05:01.881Z,2.20
2023-06-07T11:09:22.124Z,2.05
2023-06-07T11:13:40.596Z,2.17
2023-06-07T11:18:14.715Z,2.35
2023-06-07T11:22:28.461Z,2.50
2023-06-07T11:26:41.738Z,2.30
2023-06-07T11:30:54.333Z,2.20
2023-06-07T11:35:07.590Z,1.95
2023-06-07T11:39:37.001Z,2.00
2023-06-07T11:44:06.330Z,2.20
2023-06-07T11:48:19.549Z,2.15
2023-06-07T11:52:33.018Z,2.20
2023-06-07T11:56:45.544Z,2.50
2023-06-07T12:00:59.569Z,2.50
2023-06-07T12:05:31.979Z,2.20
2023-06-07T12:09:44.505Z,2.22
2023-06-07T12:14:01.181Z,2.20
2023-06-07T12:18:18.301Z,2.20
2023-06-07T12:22:30.665Z,2.40
2023-06-07T12:26:43.593Z,2.50
2023-06-07T12:30:56.118Z,2.28
2023-06-07T12:35:12.746Z,2.22
2023-06-07T12:39:29.286Z,2.20
2023-06-07T12:43:51.310Z,2.40
2023-06-07T12:48:14.438Z,2.22
2023-06-07T12:52:26.873Z,2.30
2023-06-07T12:56:39.335Z,2.15
2023-06-07T13:00:51.737Z,2.30
2023-06-07T13:05:04.179Z,2.08
2023-06-07T13:09:16.819Z,2.17
2023-06-07T13:13:30.094Z,3.28
2023-06-07T13:17:42.700Z,2.10
2023-06-07T13:21:56.492Z,2.10
2023-06-07T13:26:08.790Z,2.25
2023-06-07T13:30:21.568Z,2.60
2023-06-07T13:34:43.912Z,2.42
2023-06-07T13:38:58.449Z,2.13
2023-06-07T13:43:10.824Z,2.25
2023-06-07T13:47:32.100Z,2.22
2023-06-07T13:51:44.889Z,2.20
2023-06-07T13:55:58.349Z,2.00
2023-06-07T14:00:11.635Z,2.25
2023-06-07T14:04:34.312Z,2.20
2023-06-07T14:08:49.173Z,2.40
2023-06-07T14:13:01.960Z,2.13
2023-06-07T14:17:14.305Z,2.10
2023-06-07T14:21:33.551Z,2.20
2023-06-07T14:25:45.884Z,2.00
2023-06-07T14:29:58.873Z,2.05
2023-06-07T14:34:11.312Z,2.35
2023-06-07T14:38:23.707Z,2.60
2023-06-07T14:42:36.649Z,2.50
2023-06-07T14:46:49.005Z,2.30
2023-06-07T14:51:01.359Z,2.22
2023-06-07T14:55:13.791Z,2.45
2023-06-07T14:59:26.118Z,2.38
2023-06-07T15:03:39.756Z,2.53
2023-06-07T15:07:52.106Z,2.42
2023-06-07T15:12:05.907Z,2.22
2023-06-07T15:16:21.383Z,2.30
2023-06-07T15:20:33.750Z,2.10
2023-06-07T15:24:56.087Z,2.50
2023-06-07T15:29:18.531Z,2.28
2023-06-07T15:33:30.966Z,2.38
2023-06-07T15:37:43.268Z,2.60
2023-06-07T15:41:55.740Z,2.70
2023-06-07T15:46:18.239Z,2.92
2023-06-07T15:50:31.174Z,2.70
2023-06-07T15:54:43.467Z,2.40
2023-06-07T15:58:56.384Z,2.85
2023-06-07T16:03:17.857Z,2.50
2023-06-07T16:07:31.724Z,2.72
2023-06-07T16:11:44.231Z,2.70
2023-06-07T16:15:58.049Z,2.60
2023-06-07T16:20:11.086Z,2.80
2023-06-07T16:24:23.479Z,3.00
2023-06-07T16:28:35.772Z,2.80
2023-06-07T16:32:48.993Z,2.90
2023-06-07T16:37:01.785Z,2.80
2023-06-07T16:41:16.659Z,2.65
2023-06-07T16:45:29.012Z,3.00
2023-06-07T16:49:41.419Z,2.70
2023-06-07T16:53:53.777Z,2.63
2023-06-07T16:58:07.767Z,2.63
2023-06-07T17:02:20.212Z,2.40
2023-06-07T17:06:32.653Z,2.72
2023-06-07T17:10:47.349Z,3.05
2023-06-07T17:14:59.658Z,3.22
2023-06-07T17:19:12.439Z,2.85
2023-06-07T17:23:24.790Z,2.70
2023-06-07T17:27:37.133Z,2.70
2023-06-07T17:31:59.635Z,2.60
2023-06-07T17:36:12.021Z,2.67
2023-06-07T17:40:24.344Z,2.97
2023-06-07T17:44:36.753Z,2.75
2023-06-07T17:52:52.810Z,2.70
2023-06-07T17:57:15.494Z,2.80
2023-06-07T18:01:27.855Z,2.72
2023-06-07T18:05:40.350Z,2.65
2023-06-07T18:09:52.807Z,2.90
2023-06-07T18:14:05.225Z,2.80
2023-06-07T18:18:17.672Z,2.88
2023-06-07T18:22:30.075Z,2.83
2023-06-07T18:26:42.539Z,3.15
2023-06-07T18:30:54.945Z,2.80
2023-06-07T18:35:07.841Z,2.90
2023-06-07T18:39:24.358Z,2.83
2023-06-07T18:43:36.838Z,3.28
2023-06-07T18:47:55.476Z,2.88
2023-06-07T18:52:18.332Z,3.17
2023-06-07T18:56:30.659Z,2.67
2023-06-07T19:00:43.010Z,2.92
2023-06-07T19:04:59.993Z,3.35
2023-06-07T19:09:12.342Z,3.10
2023-06-07T19:13:30.489Z,3.00
2023-06-07T19:17:42.988Z,3.00
2023-06-07T19:21:55.877Z,3.55
2023-06-07T19:26:18.237Z,2.83
2023-06-07T19:30:30.575Z,3.15
2023-06-07T19:34:45.011Z,3.00
2023-06-07T19:38:57.397Z,3.08
2023-06-07T19:43:09.778Z,2.95
2023-06-07T19:47:22.195Z,3.08
2023-06-07T19:51:36.947Z,3.20
2023-06-07T19:55:49.245Z,3.22
2023-06-07T20:00:01.652Z,3.05
2023-06-07T20:04:14.501Z,3.03
2023-06-07T20:08:26.952Z,3.17
2023-06-07T20:12:39.360Z,2.75
2023-06-07T20:16:51.915Z,3.20
2023-06-07T20:21:14.346Z,3.22
2023-06-07T20:25:36.734Z,3.38
2023-06-07T20:29:49.084Z,3.13
2023-06-07T20:34:01.743Z,3.30
2023-06-07T20:38:14.074Z,3.00
2023-06-07T20:42:26.940Z,3.25
2023-06-07T20:46:39.314Z,3.47
2023-06-07T20:50:51.624Z,3.10
2023-06-07T20:55:04.942Z,3.38
2023-06-07T20:59:17.729Z,3.10
2023-06-07T21:03:41.927Z,3.15
2023-06-07T21:07:55.982Z,3.92
2023-06-07T21:12:08.867Z,3.28
2023-06-07T21:16:21.385Z,3.10
2023-06-07T21:20:34.429Z,3.50
2023-06-07T21:24:46.807Z,3.97
2023-06-07T21:28:59.144Z,3.97
2023-06-07T21:33:12.314Z,3.47
2023-06-07T21:37:24.691Z,3.60
2023-06-07T21:41:37.065Z,3.42
2023-06-07T21:45:49.634Z,3.58
2023-06-07T21:50:02.119Z,3.42
2023-06-07T21:54:24.496Z,4.13
2023-06-07T21:58:36.884Z,3.70
2023-06-07T22:02:49.345Z,4.18
2023-06-07T22:07:01.894Z,3.80
2023-06-07T22:11:14.904Z,4.20
2023-06-07T22:15:27.968Z,3.55
2023-06-07T22:19:42.524Z,4.10
2023-06-07T22:24:05.677Z,4.25
2023-06-07T22:28:18.310Z,4.03
2023-06-07T22:32:41.157Z,4.60
2023-06-07T22:36:55.862Z,4.20
2023-06-07T22:41:08.195Z,5.03
2023-06-07T22:45:23.738Z,5.57
2023-06-07T22:49:38.088Z,5.13
2023-06-07T22:54:02.350Z,4.38
2023-06-07T22:58:15.698Z,4.93
2023-06-07T23:02:30.488Z,5.32
2023-06-07T23:06:43.807Z,5.75
2023-06-07T23:10:57.097Z,7.00
2023-06-07T23:15:09.730Z,6.07
2023-06-07T23:19:22.090Z,5.47
2023-06-07T23:23:36.956Z,5.60
2023-06-07T23:27:49.329Z,5.32
2023-06-07T23:32:01.733Z,5.97
2023-06-07T23:36:15.359Z,5.90
2023-06-07T23:40:29.348Z,5.32
2023-06-07T23:44:42.202Z,5.50
2023-06-07T23:48:54.876Z,5.57
2023-06-07T23:53:08.362Z,5.57
2023-06-07T23:57:28.617Z,5.75
